sensor_id;sensor_type;location;lat;lon;timestamp;temperature;humidity
67901;DHT22;54700;51.796;10.956;2022-12-16T00:01:01;-5.60;94.10
67901;DHT22;54700;51.796;10.956;2022-12-16T00:03:29;-5.60;94.00
67901;DHT22;54700;51.796;10.956;2022-12-16T00:05:56;-5.60;94.60
67901;DHT22;54700;51.796;10.956;2022-12-16T00:08:22;-5.50;94.30
67901;DHT22;54700;51.796;10.956;2022-12-16T00:10:49;-5.60;93.80
67901;DHT22;54700;51.796;10.956;2022-12-16T00:13:20;-5.60;93.50
67901;DHT22;54700;51.796;10.956;2022-12-16T00:15:47;-5.60;93.40
67901;DHT22;54700;51.796;10.956;2022-12-16T00:23:25;-5.70;93.70
67901;DHT22;54700;51.796;10.956;2022-12-16T00:25:53;-5.70;93.90
67901;DHT22;54700;51.796;10.956;2022-12-16T00:28:21;-5.60;94.80
67901;DHT22;54700;51.796;10.956;2022-12-16T00:30:48;-5.60;94.60
67901;DHT22;54700;51.796;10.956;2022-12-16T00:33:16;-5.60;94.30
67901;DHT22;54700;51.796;10.956;2022-12-16T00:35:44;-5.60;94.20
67901;DHT22;54700;51.796;10.956;2022-12-16T00:38:11;-5.60;94.10
67901;DHT22;54700;51.796;10.956;2022-12-16T00:40:38;-5.60;94.00
67901;DHT22;54700;51.796;10.956;2022-12-16T00:43:05;-5.60;94.00
67901;DHT22;54700;51.796;10.956;2022-12-16T00:45:34;-5.60;94.00
67901;DHT22;54700;51.796;10.956;2022-12-16T00:48:01;-5.60;94.10
67901;DHT22;54700;51.796;10.956;2022-12-16T00:50:27;-5.60;93.70
67901;DHT22;54700;51.796;10.956;2022-12-16T00:52:54;-5.60;93.60
67901;DHT22;54700;51.796;10.956;2022-12-16T00:55:21;-5.60;93.60
67901;DHT22;54700;51.796;10.956;2022-12-16T00:57:49;-5.60;93.50
67901;DHT22;54700;51.796;10.956;2022-12-16T01:00:16;-5.70;93.60
67901;DHT22;54700;51.796;10.956;2022-12-16T01:02:46;-5.70;93.50
67901;DHT22;54700;51.796;10.956;2022-12-16T01:05:14;-5.70;93.70
67901;DHT22;54700;51.796;10.956;2022-12-16T01:07:43;-5.60;93.80
67901;DHT22;54700;51.796;10.956;2022-12-16T01:10:11;-5.70;93.70
67901;DHT22;54700;51.796;10.956;2022-12-16T01:12:38;-5.70;93.60
67901;DHT22;54700;51.796;10.956;2022-12-16T01:15:06;-5.60;93.90
67901;DHT22;54700;51.796;10.956;2022-12-16T01:17:34;-5.70;93.60
67901;DHT22;54700;51.796;10.956;2022-12-16T01:20:02;-5.70;93.40
67901;DHT22;54700;51.796;10.956;2022-12-16T01:22:30;-5.70;93.30
67901;DHT22;54700;51.796;10.956;2022-12-16T01:24:57;-5.80;93.30
67901;DHT22;54700;51.796;10.956;2022-12-16T01:27:24;-5.80;93.20
67901;DHT22;54700;51.796;10.956;2022-12-16T01:29:51;-5.80;93.60
67901;DHT22;54700;51.796;10.956;2022-12-16T01:32:19;-5.80;93.90
67901;DHT22;54700;51.796;10.956;2022-12-16T01:34:48;-5.70;94.40
67901;DHT22;54700;51.796;10.956;2022-12-16T01:37:17;-5.70;94.70
67901;DHT22;54700;51.796;10.956;2022-12-16T01:39:45;-5.70;94.60
67901;DHT22;54700;51.796;10.956;2022-12-16T01:42:12;-5.60;94.40
67901;DHT22;54700;51.796;10.956;2022-12-16T01:44:40;-5.60;94.20
67901;DHT22;54700;51.796;10.956;2022-12-16T01:47:08;-5.60;94.10
67901;DHT22;54700;51.796;10.956;2022-12-16T01:49:41;-5.70;93.50
67901;DHT22;54700;51.796;10.956;2022-12-16T01:52:13;-5.70;93.30
67901;DHT22;54700;51.796;10.956;2022-12-16T01:54:45;-5.80;93.50
67901;DHT22;54700;51.796;10.956;2022-12-16T01:57:16;-5.80;93.50
67901;DHT22;54700;51.796;10.956;2022-12-16T01:59:47;-5.80;93.50
67901;DHT22;54700;51.796;10.956;2022-12-16T02:02:17;-5.80;93.70
67901;DHT22;54700;51.796;10.956;2022-12-16T02:04:45;-5.80;94.50
67901;DHT22;54700;51.796;10.956;2022-12-16T02:07:26;-5.70;95.40
67901;DHT22;54700;51.796;10.956;2022-12-16T02:09:55;-5.60;95.20
67901;DHT22;54700;51.796;10.956;2022-12-16T02:12:24;-5.60;94.50
67901;DHT22;54700;51.796;10.956;2022-12-16T02:15:02;-5.60;94.00
67901;DHT22;54700;51.796;10.956;2022-12-16T02:17:52;-5.70;93.70
67901;DHT22;54700;51.796;10.956;2022-12-16T02:23:41;-5.80;93.60
67901;DHT22;54700;51.796;10.956;2022-12-16T02:26:51;-5.90;93.60
67901;DHT22;54700;51.796;10.956;2022-12-16T02:29:45;-5.90;94.00
67901;DHT22;54700;51.796;10.956;2022-12-16T02:32:28;-5.90;94.30
67901;DHT22;54700;51.796;10.956;2022-12-16T02:35:04;-5.80;94.50
67901;DHT22;54700;51.796;10.956;2022-12-16T02:37:37;-5.70;95.40
67901;DHT22;54700;51.796;10.956;2022-12-16T02:40:11;-5.70;95.40
67901;DHT22;54700;51.796;10.956;2022-12-16T02:42:44;-5.70;94.70
67901;DHT22;54700;51.796;10.956;2022-12-16T02:45:16;-5.70;93.90
67901;DHT22;54700;51.796;10.956;2022-12-16T02:47:47;-5.80;93.10
67901;DHT22;54700;51.796;10.956;2022-12-16T02:50:16;-5.90;92.70
67901;DHT22;54700;51.796;10.956;2022-12-16T02:52:45;-6.00;92.80
67901;DHT22;54700;51.796;10.956;2022-12-16T02:55:12;-6.00;93.00
67901;DHT22;54700;51.796;10.956;2022-12-16T02:57:47;-6.00;93.00
67901;DHT22;54700;51.796;10.956;2022-12-16T03:00:23;-6.10;93.30
67901;DHT22;54700;51.796;10.956;2022-12-16T03:02:59;-6.10;93.50
67901;DHT22;54700;51.796;10.956;2022-12-16T03:05:33;-6.00;93.70
67901;DHT22;54700;51.796;10.956;2022-12-16T03:08:05;-6.10;93.90
67901;DHT22;54700;51.796;10.956;2022-12-16T03:10:38;-6.00;94.10
67901;DHT22;54700;51.796;10.956;2022-12-16T03:13:09;-6.00;93.80
67901;DHT22;54700;51.796;10.956;2022-12-16T03:15:41;-6.00;93.50
67901;DHT22;54700;51.796;10.956;2022-12-16T03:18:11;-6.00;93.60
67901;DHT22;54700;51.796;10.956;2022-12-16T03:20:41;-6.00;93.70
67901;DHT22;54700;51.796;10.956;2022-12-16T03:23:12;-6.00;94.00
67901;DHT22;54700;51.796;10.956;2022-12-16T03:25:44;-6.00;94.20
67901;DHT22;54700;51.796;10.956;2022-12-16T03:28:16;-5.90;94.40
67901;DHT22;54700;51.796;10.956;2022-12-16T03:30:55;-5.90;94.10
67901;DHT22;54700;51.796;10.956;2022-12-16T03:33:32;-5.90;93.80
67901;DHT22;54700;51.796;10.956;2022-12-16T03:36:06;-6.10;92.70
67901;DHT22;54700;51.796;10.956;2022-12-16T03:38:37;-6.20;92.70
67901;DHT22;54700;51.796;10.956;2022-12-16T03:41:05;-6.20;92.80
67901;DHT22;54700;51.796;10.956;2022-12-16T03:43:33;-6.30;93.00
67901;DHT22;54700;51.796;10.956;2022-12-16T03:46:02;-6.20;93.50
67901;DHT22;54700;51.796;10.956;2022-12-16T03:48:32;-6.20;93.90
67901;DHT22;54700;51.796;10.956;2022-12-16T03:50:59;-6.20;94.10
67901;DHT22;54700;51.796;10.956;2022-12-16T03:53:27;-6.10;94.30
67901;DHT22;54700;51.796;10.956;2022-12-16T03:55:55;-6.10;93.90
67901;DHT22;54700;51.796;10.956;2022-12-16T03:58:22;-6.10;93.50
67901;DHT22;54700;51.796;10.956;2022-12-16T04:00:49;-6.10;93.40
67901;DHT22;54700;51.796;10.956;2022-12-16T04:03:16;-6.10;93.40
67901;DHT22;54700;51.796;10.956;2022-12-16T04:05:45;-6.10;93.60
67901;DHT22;54700;51.796;10.956;2022-12-16T04:08:12;-6.20;93.30
67901;DHT22;54700;51.796;10.956;2022-12-16T04:10:39;-6.20;92.90
67901;DHT22;54700;51.796;10.956;2022-12-16T04:13:23;-6.30;92.80
67901;DHT22;54700;51.796;10.956;2022-12-16T04:16:07;-6.40;92.80
67901;DHT22;54700;51.796;10.956;2022-12-16T04:18:56;-6.50;92.90
67901;DHT22;54700;51.796;10.956;2022-12-16T04:21:43;-6.50;93.10
67901;DHT22;54700;51.796;10.956;2022-12-16T04:24:27;-6.50;93.20
67901;DHT22;54700;51.796;10.956;2022-12-16T04:26:56;-6.50;93.40
67901;DHT22;54700;51.796;10.956;2022-12-16T04:29:40;-6.50;93.60
67901;DHT22;54700;51.796;10.956;2022-12-16T04:32:21;-6.40;94.00
67901;DHT22;54700;51.796;10.956;2022-12-16T04:34:48;-6.40;94.20
67901;DHT22;54700;51.796;10.956;2022-12-16T04:37:17;-6.30;94.10
67901;DHT22;54700;51.796;10.956;2022-12-16T04:40:01;-6.30;94.00
67901;DHT22;54700;51.796;10.956;2022-12-16T04:42:45;-6.20;93.90
67901;DHT22;54700;51.796;10.956;2022-12-16T04:45:29;-6.20;93.80
67901;DHT22;54700;51.796;10.956;2022-12-16T04:48:14;-6.20;94.20
67901;DHT22;54700;51.796;10.956;2022-12-16T04:50:58;-6.20;94.00
67901;DHT22;54700;51.796;10.956;2022-12-16T04:53:43;-6.20;94.00
67901;DHT22;54700;51.796;10.956;2022-12-16T04:56:28;-6.20;93.90
67901;DHT22;54700;51.796;10.956;2022-12-16T04:59:12;-6.20;94.00
67901;DHT22;54700;51.796;10.956;2022-12-16T05:01:56;-6.20;93.80
67901;DHT22;54700;51.796;10.956;2022-12-16T05:04:40;-6.20;93.30
67901;DHT22;54700;51.796;10.956;2022-12-16T05:07:24;-6.30;93.10
67901;DHT22;54700;51.796;10.956;2022-12-16T05:10:10;-6.30;93.10
67901;DHT22;54700;51.796;10.956;2022-12-16T05:12:54;-6.40;93.00
67901;DHT22;54700;51.796;10.956;2022-12-16T05:15:38;-6.40;93.20
67901;DHT22;54700;51.796;10.956;2022-12-16T05:18:23;-6.40;93.40
67901;DHT22;54700;51.796;10.956;2022-12-16T05:21:07;-6.30;93.50
67901;DHT22;54700;51.796;10.956;2022-12-16T05:23:51;-6.40;93.40
67901;DHT22;54700;51.796;10.956;2022-12-16T05:26:37;-6.40;93.50
67901;DHT22;54700;51.796;10.956;2022-12-16T05:29:21;-6.40;93.40
67901;DHT22;54700;51.796;10.956;2022-12-16T05:32:05;-6.40;93.30
67901;DHT22;54700;51.796;10.956;2022-12-16T05:34:53;-6.40;93.40
67901;DHT22;54700;51.796;10.956;2022-12-16T05:37:38;-6.40;93.30
67901;DHT22;54700;51.796;10.956;2022-12-16T05:40:22;-6.40;94.00
67901;DHT22;54700;51.796;10.956;2022-12-16T05:43:17;-6.30;94.50
67901;DHT22;54700;51.796;10.956;2022-12-16T05:46:10;-6.30;94.30
67901;DHT22;54700;51.796;10.956;2022-12-16T05:48:54;-6.20;94.20
67901;DHT22;54700;51.796;10.956;2022-12-16T05:51:39;-6.20;94.10
67901;DHT22;54700;51.796;10.956;2022-12-16T05:54:23;-6.20;93.80
67901;DHT22;54700;51.796;10.956;2022-12-16T05:57:08;-6.20;93.80
67901;DHT22;54700;51.796;10.956;2022-12-16T05:59:53;-6.30;93.80
67901;DHT22;54700;51.796;10.956;2022-12-16T06:02:38;-6.30;93.90
67901;DHT22;54700;51.796;10.956;2022-12-16T06:05:22;-6.20;94.50
67901;DHT22;54700;51.796;10.956;2022-12-16T06:08:07;-6.10;94.30
67901;DHT22;54700;51.796;10.956;2022-12-16T06:10:51;-6.10;94.00
67901;DHT22;54700;51.796;10.956;2022-12-16T06:13:35;-6.20;93.80
67901;DHT22;54700;51.796;10.956;2022-12-16T06:16:35;-6.20;93.90
67901;DHT22;54700;51.796;10.956;2022-12-16T06:19:22;-6.20;93.80
67901;DHT22;54700;51.796;10.956;2022-12-16T06:22:11;-6.20;93.90
67901;DHT22;54700;51.796;10.956;2022-12-16T06:24:56;-6.20;93.90
67901;DHT22;54700;51.796;10.956;2022-12-16T06:27:40;-6.20;94.40
67901;DHT22;54700;51.796;10.956;2022-12-16T06:30:25;-6.20;94.90
67901;DHT22;54700;51.796;10.956;2022-12-16T06:33:10;-6.10;94.70
67901;DHT22;54700;51.796;10.956;2022-12-16T06:35:55;-6.10;94.30
67901;DHT22;54700;51.796;10.956;2022-12-16T06:38:39;-6.10;94.20
67901;DHT22;54700;51.796;10.956;2022-12-16T06:41:29;-6.10;93.90
67901;DHT22;54700;51.796;10.956;2022-12-16T06:44:09;-6.00;93.90
67901;DHT22;54700;51.796;10.956;2022-12-16T06:46:54;-6.00;94.30
67901;DHT22;54700;51.796;10.956;2022-12-16T06:49:39;-5.90;94.60
67901;DHT22;54700;51.796;10.956;2022-12-16T06:52:24;-5.90;94.70
67901;DHT22;54700;51.796;10.956;2022-12-16T06:55:09;-5.90;94.70
67901;DHT22;54700;51.796;10.956;2022-12-16T06:57:55;-5.90;94.90
67901;DHT22;54700;51.796;10.956;2022-12-16T07:00:40;-5.80;94.60
67901;DHT22;54700;51.796;10.956;2022-12-16T07:03:25;-5.80;94.70
67901;DHT22;54700;51.796;10.956;2022-12-16T07:06:13;-5.80;94.30
67901;DHT22;54700;51.796;10.956;2022-12-16T07:08:57;-5.80;93.90
67901;DHT22;54700;51.796;10.956;2022-12-16T07:11:42;-5.80;93.80
67901;DHT22;54700;51.796;10.956;2022-12-16T07:14:28;-5.90;93.60
67901;DHT22;54700;51.796;10.956;2022-12-16T07:17:16;-5.90;93.60
67901;DHT22;54700;51.796;10.956;2022-12-16T07:20:12;-6.00;93.60
67901;DHT22;54700;51.796;10.956;2022-12-16T07:23:00;-6.00;93.80
67901;DHT22;54700;51.796;10.956;2022-12-16T07:25:54;-6.00;94.20
67901;DHT22;54700;51.796;10.956;2022-12-16T07:28:44;-6.00;94.10
67901;DHT22;54700;51.796;10.956;2022-12-16T07:31:32;-6.00;94.10
67901;DHT22;54700;51.796;10.956;2022-12-16T07:34:18;-6.00;93.90
67901;DHT22;54700;51.796;10.956;2022-12-16T07:37:03;-6.00;94.00
67901;DHT22;54700;51.796;10.956;2022-12-16T07:39:49;-6.10;93.80
67901;DHT22;54700;51.796;10.956;2022-12-16T07:42:33;-6.10;94.00
67901;DHT22;54700;51.796;10.956;2022-12-16T07:45:18;-6.10;93.90
67901;DHT22;54700;51.796;10.956;2022-12-16T07:48:04;-6.10;93.60
67901;DHT22;54700;51.796;10.956;2022-12-16T07:50:48;-6.10;93.60
67901;DHT22;54700;51.796;10.956;2022-12-16T07:53:33;-6.20;93.50
67901;DHT22;54700;51.796;10.956;2022-12-16T07:56:18;-6.20;93.70
67901;DHT22;54700;51.796;10.956;2022-12-16T07:59:17;-6.20;93.90
67901;DHT22;54700;51.796;10.956;2022-12-16T08:02:02;-6.20;93.80
67901;DHT22;54700;51.796;10.956;2022-12-16T08:04:46;-6.20;93.80
67901;DHT22;54700;51.796;10.956;2022-12-16T08:07:39;-6.10;93.90
67901;DHT22;54700;51.796;10.956;2022-12-16T08:10:24;-6.10;93.80
67901;DHT22;54700;51.796;10.956;2022-12-16T08:13:09;-6.10;93.70
67901;DHT22;54700;51.796;10.956;2022-12-16T08:15:54;-6.00;93.70
67901;DHT22;54700;51.796;10.956;2022-12-16T08:18:38;-6.00;93.60
67901;DHT22;54700;51.796;10.956;2022-12-16T08:21:26;-5.90;93.60
67901;DHT22;54700;51.796;10.956;2022-12-16T08:24:10;-5.90;93.70
67901;DHT22;54700;51.796;10.956;2022-12-16T08:27:09;-5.80;93.70
67901;DHT22;54700;51.796;10.956;2022-12-16T08:29:55;-5.70;93.80
67901;DHT22;54700;51.796;10.956;2022-12-16T08:32:40;-5.70;93.90
67901;DHT22;54700;51.796;10.956;2022-12-16T08:35:24;-5.60;94.00
67901;DHT22;54700;51.796;10.956;2022-12-16T08:38:12;-5.50;94.00
67901;DHT22;54700;51.796;10.956;2022-12-16T08:40:59;-5.50;94.00
67901;DHT22;54700;51.796;10.956;2022-12-16T08:43:49;-5.30;94.00
67901;DHT22;54700;51.796;10.956;2022-12-16T08:46:36;-5.30;93.90
67901;DHT22;54700;51.796;10.956;2022-12-16T08:49:33;-5.20;94.00
67901;DHT22;54700;51.796;10.956;2022-12-16T08:52:17;-5.10;94.20
67901;DHT22;54700;51.796;10.956;2022-12-16T08:55:04;-5.00;94.40
67901;DHT22;54700;51.796;10.956;2022-12-16T08:57:54;-5.00;94.20
67901;DHT22;54700;51.796;10.956;2022-12-16T09:00:39;-4.90;94.40
67901;DHT22;54700;51.796;10.956;2022-12-16T09:03:28;-4.80;94.30
67901;DHT22;54700;51.796;10.956;2022-12-16T09:06:13;-4.80;94.30
67901;DHT22;54700;51.796;10.956;2022-12-16T09:08:58;-4.70;94.60
67901;DHT22;54700;51.796;10.956;2022-12-16T09:11:45;-4.50;95.40
67901;DHT22;54700;51.796;10.956;2022-12-16T09:14:30;-4.40;95.20
67901;DHT22;54700;51.796;10.956;2022-12-16T09:17:14;-4.30;95.00
67901;DHT22;54700;51.796;10.956;2022-12-16T09:19:59;-4.30;94.90
67901;DHT22;54700;51.796;10.956;2022-12-16T09:22:44;-4.20;94.90
67901;DHT22;54700;51.796;10.956;2022-12-16T09:25:29;-4.20;95.00
67901;DHT22;54700;51.796;10.956;2022-12-16T09:28:13;-4.10;95.10
67901;DHT22;54700;51.796;10.956;2022-12-16T09:30:58;-4.00;95.50
67901;DHT22;54700;51.796;10.956;2022-12-16T09:33:43;-3.90;95.60
67901;DHT22;54700;51.796;10.956;2022-12-16T09:36:29;-3.80;95.80
67901;DHT22;54700;51.796;10.956;2022-12-16T09:39:13;-3.80;95.60
67901;DHT22;54700;51.796;10.956;2022-12-16T09:42:00;-3.70;95.60
67901;DHT22;54700;51.796;10.956;2022-12-16T09:44:58;-3.60;95.60
67901;DHT22;54700;51.796;10.956;2022-12-16T09:47:52;-3.50;95.70
67901;DHT22;54700;51.796;10.956;2022-12-16T09:50:43;-3.30;96.00
67901;DHT22;54700;51.796;10.956;2022-12-16T09:53:30;-3.20;96.10
67901;DHT22;54700;51.796;10.956;2022-12-16T09:56:21;-3.10;95.40
67901;DHT22;54700;51.796;10.956;2022-12-16T09:59:11;-3.00;95.00
67901;DHT22;54700;51.796;10.956;2022-12-16T10:01:57;-3.00;94.60
67901;DHT22;54700;51.796;10.956;2022-12-16T10:04:42;-2.90;94.60
67901;DHT22;54700;51.796;10.956;2022-12-16T10:07:30;-2.90;93.90
67901;DHT22;54700;51.796;10.956;2022-12-16T10:10:22;-2.80;93.60
67901;DHT22;54700;51.796;10.956;2022-12-16T10:13:16;-2.70;93.30
67901;DHT22;54700;51.796;10.956;2022-12-16T10:16:13;-2.60;93.40
67901;DHT22;54700;51.796;10.956;2022-12-16T10:19:04;-2.50;93.30
67901;DHT22;54700;51.796;10.956;2022-12-16T10:22:05;-2.40;93.10
67901;DHT22;54700;51.796;10.956;2022-12-16T10:24:58;-2.30;93.00
67901;DHT22;54700;51.796;10.956;2022-12-16T10:27:48;-2.20;92.80
67901;DHT22;54700;51.796;10.956;2022-12-16T10:30:34;-2.20;92.70
67901;DHT22;54700;51.796;10.956;2022-12-16T10:33:21;-2.10;92.50
67901;DHT22;54700;51.796;10.956;2022-12-16T10:36:10;-2.00;92.50
67901;DHT22;54700;51.796;10.956;2022-12-16T10:39:22;-2.00;92.30
67901;DHT22;54700;51.796;10.956;2022-12-16T10:42:16;-1.90;92.30
67901;DHT22;54700;51.796;10.956;2022-12-16T10:45:13;-1.80;91.70
67901;DHT22;54700;51.796;10.956;2022-12-16T10:48:04;-1.70;91.60
67901;DHT22;54700;51.796;10.956;2022-12-16T10:50:48;-1.80;91.20
67901;DHT22;54700;51.796;10.956;2022-12-16T10:53:40;-1.80;91.20
67901;DHT22;54700;51.796;10.956;2022-12-16T10:56:30;-1.80;91.10
67901;DHT22;54700;51.796;10.956;2022-12-16T10:59:33;-1.80;91.20
67901;DHT22;54700;51.796;10.956;2022-12-16T11:02:25;-1.80;91.30
67901;DHT22;54700;51.796;10.956;2022-12-16T11:08:22;-1.60;91.40
67901;DHT22;54700;51.796;10.956;2022-12-16T11:11:12;-1.60;91.40
67901;DHT22;54700;51.796;10.956;2022-12-16T11:14:21;-1.60;91.30
67901;DHT22;54700;51.796;10.956;2022-12-16T11:17:11;-1.50;91.40
67901;DHT22;54700;51.796;10.956;2022-12-16T11:20:06;-1.50;91.40
67901;DHT22;54700;51.796;10.956;2022-12-16T11:26:11;-1.40;91.20
67901;DHT22;54700;51.796;10.956;2022-12-16T11:29:01;-1.40;91.30
67901;DHT22;54700;51.796;10.956;2022-12-16T11:31:48;-1.30;91.40
67901;DHT22;54700;51.796;10.956;2022-12-16T11:34:37;-1.20;91.50
67901;DHT22;54700;51.796;10.956;2022-12-16T11:37:33;-1.20;91.40
67901;DHT22;54700;51.796;10.956;2022-12-16T11:40:21;-1.10;91.30
67901;DHT22;54700;51.796;10.956;2022-12-16T11:43:07;-1.00;91.00
67901;DHT22;54700;51.796;10.956;2022-12-16T11:45:56;-1.00;90.70
67901;DHT22;54700;51.796;10.956;2022-12-16T11:48:46;-1.00;90.60
67901;DHT22;54700;51.796;10.956;2022-12-16T11:51:33;-1.00;90.30
67901;DHT22;54700;51.796;10.956;2022-12-16T11:54:22;-1.00;90.30
67901;DHT22;54700;51.796;10.956;2022-12-16T11:57:15;-1.00;90.60
67901;DHT22;54700;51.796;10.956;2022-12-16T12:00:08;-0.90;90.60
67901;DHT22;54700;51.796;10.956;2022-12-16T12:03:00;-0.90;90.60
67901;DHT22;54700;51.796;10.956;2022-12-16T12:06:00;-0.90;90.50
67901;DHT22;54700;51.796;10.956;2022-12-16T12:08:52;-0.90;90.50
67901;DHT22;54700;51.796;10.956;2022-12-16T12:11:48;-0.80;90.60
67901;DHT22;54700;51.796;10.956;2022-12-16T12:14:39;-0.80;90.50
67901;DHT22;54700;51.796;10.956;2022-12-16T12:17:32;-0.80;90.40
67901;DHT22;54700;51.796;10.956;2022-12-16T12:23:39;-0.90;90.60
67901;DHT22;54700;51.796;10.956;2022-12-16T12:26:29;-0.90;90.60
67901;DHT22;54700;51.796;10.956;2022-12-16T12:29:19;-0.90;90.70
67901;DHT22;54700;51.796;10.956;2022-12-16T12:32:14;-0.90;90.80
67901;DHT22;54700;51.796;10.956;2022-12-16T13:11:41;-0.90;91.60
67901;DHT22;54700;51.796;10.956;2022-12-16T13:15:04;-0.90;91.80
67901;DHT22;54700;51.796;10.956;2022-12-16T13:20:56;-0.90;91.90
67901;DHT22;54700;51.796;10.956;2022-12-16T13:23:41;-0.90;91.80
67901;DHT22;54700;51.796;10.956;2022-12-16T13:26:28;-0.90;91.90
67901;DHT22;54700;51.796;10.956;2022-12-16T13:29:30;-0.80;92.00
67901;DHT22;54700;51.796;10.956;2022-12-16T13:32:16;-0.80;91.90
67901;DHT22;54700;51.796;10.956;2022-12-16T13:35:03;-0.90;91.90
67901;DHT22;54700;51.796;10.956;2022-12-16T13:37:59;-0.90;91.90
67901;DHT22;54700;51.796;10.956;2022-12-16T13:40:47;-0.90;92.00
67901;DHT22;54700;51.796;10.956;2022-12-16T13:43:47;-0.90;92.10
67901;DHT22;54700;51.796;10.956;2022-12-16T13:46:42;-0.90;92.30
67901;DHT22;54700;51.796;10.956;2022-12-16T13:49:42;-0.90;92.30
67901;DHT22;54700;51.796;10.956;2022-12-16T13:52:41;-0.90;92.40
67901;DHT22;54700;51.796;10.956;2022-12-16T13:55:40;-0.90;92.40
67901;DHT22;54700;51.796;10.956;2022-12-16T13:58:31;-0.90;92.30
67901;DHT22;54700;51.796;10.956;2022-12-16T14:01:20;-0.90;92.40
67901;DHT22;54700;51.796;10.956;2022-12-16T14:04:13;-0.90;92.50
67901;DHT22;54700;51.796;10.956;2022-12-16T14:07:08;-0.90;92.60
67901;DHT22;54700;51.796;10.956;2022-12-16T14:09:52;-1.00;92.60
67901;DHT22;54700;51.796;10.956;2022-12-16T14:12:39;-1.00;92.70
67901;DHT22;54700;51.796;10.956;2022-12-16T14:15:31;-1.00;92.80
67901;DHT22;54700;51.796;10.956;2022-12-16T14:18:27;-1.00;92.80
67901;DHT22;54700;51.796;10.956;2022-12-16T14:21:22;-1.00;92.80
67901;DHT22;54700;51.796;10.956;2022-12-16T14:24:16;-1.10;92.90
67901;DHT22;54700;51.796;10.956;2022-12-16T14:27:10;-1.10;93.10
67901;DHT22;54700;51.796;10.956;2022-12-16T14:29:58;-1.10;93.10
67901;DHT22;54700;51.796;10.956;2022-12-16T14:32:44;-1.10;93.30
67901;DHT22;54700;51.796;10.956;2022-12-16T14:35:28;-1.10;93.90
67901;DHT22;54700;51.796;10.956;2022-12-16T14:38:24;-1.00;93.20
67901;DHT22;54700;51.796;10.956;2022-12-16T14:41:11;-1.00;93.10
67901;DHT22;54700;51.796;10.956;2022-12-16T14:43:57;-1.10;93.20
67901;DHT22;54700;51.796;10.956;2022-12-16T14:46:41;-1.10;93.30
67901;DHT22;54700;51.796;10.956;2022-12-16T14:49:32;-1.20;93.40
67901;DHT22;54700;51.796;10.956;2022-12-16T14:52:18;-1.20;93.50
67901;DHT22;54700;51.796;10.956;2022-12-16T14:55:15;-1.20;93.60
67901;DHT22;54700;51.796;10.956;2022-12-16T14:58:07;-1.30;93.70
67901;DHT22;54700;51.796;10.956;2022-12-16T15:00:57;-1.30;93.90
67901;DHT22;54700;51.796;10.956;2022-12-16T15:03:46;-1.30;93.90
67901;DHT22;54700;51.796;10.956;2022-12-16T15:06:33;-1.30;94.00
67901;DHT22;54700;51.796;10.956;2022-12-16T15:09:33;-1.30;94.10
67901;DHT22;54700;51.796;10.956;2022-12-16T15:12:26;-1.40;94.30
67901;DHT22;54700;51.796;10.956;2022-12-16T15:15:15;-1.40;94.30
67901;DHT22;54700;51.796;10.956;2022-12-16T15:18:13;-1.40;94.30
67901;DHT22;54700;51.796;10.956;2022-12-16T15:21:15;-1.40;94.20
67901;DHT22;54700;51.796;10.956;2022-12-16T15:24:06;-1.40;94.20
67901;DHT22;54700;51.796;10.956;2022-12-16T15:33:18;-1.40;94.40
67901;DHT22;54700;51.796;10.956;2022-12-16T15:36:06;-1.40;94.60
67901;DHT22;54700;51.796;10.956;2022-12-16T15:39:09;-1.40;94.60
67901;DHT22;54700;51.796;10.956;2022-12-16T15:41:54;-1.30;94.50
67901;DHT22;54700;51.796;10.956;2022-12-16T15:44:39;-1.40;94.40
67901;DHT22;54700;51.796;10.956;2022-12-16T15:47:37;-1.30;94.50
67901;DHT22;54700;51.796;10.956;2022-12-16T15:50:26;-1.30;94.40
67901;DHT22;54700;51.796;10.956;2022-12-16T15:53:29;-1.30;94.20
67901;DHT22;54700;51.796;10.956;2022-12-16T15:56:16;-1.30;94.20
67901;DHT22;54700;51.796;10.956;2022-12-16T15:59:12;-1.30;94.00
67901;DHT22;54700;51.796;10.956;2022-12-16T16:02:03;-1.30;93.80
67901;DHT22;54700;51.796;10.956;2022-12-16T16:04:53;-1.20;93.40
67901;DHT22;54700;51.796;10.956;2022-12-16T16:07:40;-1.20;93.30
67901;DHT22;54700;51.796;10.956;2022-12-16T16:10:30;-1.20;93.10
67901;DHT22;54700;51.796;10.956;2022-12-16T16:13:19;-1.20;93.10
67901;DHT22;54700;51.796;10.956;2022-12-16T16:16:07;-1.10;93.00
67901;DHT22;54700;51.796;10.956;2022-12-16T16:18:56;-1.10;93.00
67901;DHT22;54700;51.796;10.956;2022-12-16T16:21:44;-1.10;92.80
67901;DHT22;54700;51.796;10.956;2022-12-16T16:24:29;-1.10;92.60
67901;DHT22;54700;51.796;10.956;2022-12-16T16:27:13;-1.10;92.50
67901;DHT22;54700;51.796;10.956;2022-12-16T16:30:01;-1.10;92.40
67901;DHT22;54700;51.796;10.956;2022-12-16T16:32:46;-1.10;92.40
67901;DHT22;54700;51.796;10.956;2022-12-16T16:35:31;-1.10;92.40
67901;DHT22;54700;51.796;10.956;2022-12-16T16:38:24;-1.10;92.40
67901;DHT22;54700;51.796;10.956;2022-12-16T16:41:18;-1.10;92.40
67901;DHT22;54700;51.796;10.956;2022-12-16T16:44:08;-1.10;92.40
67901;DHT22;54700;51.796;10.956;2022-12-16T16:46:56;-1.10;92.40
67901;DHT22;54700;51.796;10.956;2022-12-16T16:49:43;-1.10;92.40
67901;DHT22;54700;51.796;10.956;2022-12-16T16:55:32;-1.10;92.60
67901;DHT22;54700;51.796;10.956;2022-12-16T16:58:19;-1.10;92.60
67901;DHT22;54700;51.796;10.956;2022-12-16T17:01:17;-1.10;92.70
67901;DHT22;54700;51.796;10.956;2022-12-16T17:04:02;-1.10;93.20
67901;DHT22;54700;51.796;10.956;2022-12-16T17:06:47;-1.20;92.90
67901;DHT22;54700;51.796;10.956;2022-12-16T17:09:48;-1.20;93.00
67901;DHT22;54700;51.796;10.956;2022-12-16T17:12:38;-1.20;93.00
67901;DHT22;54700;51.796;10.956;2022-12-16T17:15:27;-1.20;93.10
67901;DHT22;54700;51.796;10.956;2022-12-16T17:18:14;-1.30;93.10
67901;DHT22;54700;51.796;10.956;2022-12-16T17:21:02;-1.30;93.10
67901;DHT22;54700;51.796;10.956;2022-12-16T17:23:52;-1.30;93.20
67901;DHT22;54700;51.796;10.956;2022-12-16T17:26:39;-1.30;93.20
67901;DHT22;54700;51.796;10.956;2022-12-16T17:29:25;-1.30;93.30
67901;DHT22;54700;51.796;10.956;2022-12-16T17:32:10;-1.30;93.30
67901;DHT22;54700;51.796;10.956;2022-12-16T17:34:56;-1.30;93.30
67901;DHT22;54700;51.796;10.956;2022-12-16T17:37:41;-1.30;93.50
67901;DHT22;54700;51.796;10.956;2022-12-16T17:40:27;-1.30;93.30
67901;DHT22;54700;51.796;10.956;2022-12-16T17:43:12;-1.30;93.30
67901;DHT22;54700;51.796;10.956;2022-12-16T17:45:59;-1.20;93.30
67901;DHT22;54700;51.796;10.956;2022-12-16T17:48:51;-1.30;93.20
67901;DHT22;54700;51.796;10.956;2022-12-16T17:51:37;-1.30;93.30
67901;DHT22;54700;51.796;10.956;2022-12-16T17:54:23;-1.30;93.40
67901;DHT22;54700;51.796;10.956;2022-12-16T17:57:26;-1.30;93.60
67901;DHT22;54700;51.796;10.956;2022-12-16T18:00:16;-1.30;93.40
67901;DHT22;54700;51.796;10.956;2022-12-16T18:03:11;-1.30;93.50
67901;DHT22;54700;51.796;10.956;2022-12-16T18:05:55;-1.30;93.50